Time;durP1;ratioP1;P1;durP2;ratioP2;P2;SDS_P1;SDS_P2;PMS_P1;PMS_P2;Temp;Humidity;BMP_temperature;BMP_pressure;BME280_temperature;BME280_humidity;BME280_pressure;Samples;Min_cycle;Max_cycle;Signal;HPM_P1;HPM_P2
2022/03/21 00:00:27;;;;;;;11.73;7.03;;;3.80;80.70;;;;;;5062707;28;20044;-82
2022/03/21 00:02:57;;;;;;;13.90;8.57;;;3.80;80.90;;;;;;5056342;28;20055;-82
2022/03/21 00:05:25;;;;;;;11.75;7.22;;;3.80;80.90;;;;;;5074530;28;20488;-82
2022/03/21 00:07:52;;;;;;;15.00;9.03;;;3.70;80.90;;;;;;5059868;28;20501;-82
2022/03/21 00:10:20;;;;;;;12.00;7.63;;;3.70;81.00;;;;;;5060391;28;20059;-82
2022/03/21 00:12:49;;;;;;;12.17;7.40;;;3.70;81.10;;;;;;5060485;28;20776;-82
2022/03/21 00:15:16;;;;;;;13.10;7.60;;;3.60;81.10;;;;;;5060801;28;20044;-82
2022/03/21 00:17:44;;;;;;;13.27;8.45;;;3.60;81.20;;;;;;5059390;28;20048;-82
2022/03/21 00:20:12;;;;;;;13.53;8.03;;;3.60;81.20;;;;;;5076950;28;20040;-82
2022/03/21 00:22:39;;;;;;;13.50;7.95;;;3.60;81.30;;;;;;5060378;28;20587;-82
2022/03/21 00:25:08;;;;;;;13.15;7.07;;;3.60;81.40;;;;;;5060509;28;20098;-82
2022/03/21 00:27:36;;;;;;;13.07;7.93;;;3.60;81.40;;;;;;5060402;28;20066;-82
2022/03/21 00:30:11;;;;;;;13.77;7.40;;;3.60;81.40;;;;;;5060942;28;20064;-81
2022/03/21 00:32:39;;;;;;;11.00;6.75;;;3.50;81.40;;;;;;5076741;28;20051;-82
2022/03/21 00:35:15;;;;;;;12.80;7.82;;;3.50;81.50;;;;;;5060681;28;20054;-82
2022/03/21 00:37:44;;;;;;;14.32;8.00;;;3.50;81.50;;;;;;5060128;28;20068;-82
2022/03/21 00:40:14;;;;;;;14.15;8.23;;;3.50;81.60;;;;;;5060213;28;20040;-82
2022/03/21 00:42:43;;;;;;;14.95;8.65;;;3.40;81.70;;;;;;5061137;28;20093;-82
2022/03/21 00:45:16;;;;;;;12.03;7.57;;;3.40;81.70;;;;;;5060627;28;20040;-82
2022/03/21 00:47:47;;;;;;;13.35;7.53;;;3.40;81.80;;;;;;5060145;28;20044;-82
2022/03/21 00:50:17;;;;;;;15.13;8.77;;;3.40;81.80;;;;;;5060057;28;20516;-82
2022/03/21 00:52:49;;;;;;;15.02;8.52;;;3.40;81.80;;;;;;5060016;28;20048;-82
2022/03/21 00:55:19;;;;;;;14.65;8.63;;;3.40;81.90;;;;;;5076448;28;20400;-82
2022/03/21 00:57:47;;;;;;;13.40;8.43;;;3.30;82.00;;;;;;5076514;28;20036;-82
2022/03/21 01:00:18;;;;;;;12.63;8.27;;;3.30;82.00;;;;;;5059990;28;20044;-82
2022/03/21 01:02:46;;;;;;;13.43;7.93;;;3.30;82.10;;;;;;5076186;28;20040;-83
2022/03/21 01:05:13;;;;;;;15.47;8.87;;;3.30;82.10;;;;;;5043364;28;20044;-83
2022/03/21 01:07:41;;;;;;;14.67;8.60;;;3.20;82.00;;;;;;5076566;28;20126;-82
2022/03/21 01:10:14;;;;;;;14.37;9.50;;;3.20;82.20;;;;;;5059533;28;20504;-82
2022/03/21 01:12:42;;;;;;;13.23;8.80;;;3.20;82.20;;;;;;5059711;28;20055;-81
2022/03/21 01:15:14;;;;;;;13.53;8.00;;;3.10;82.20;;;;;;5059450;28;20032;-81
2022/03/21 01:17:42;;;;;;;13.30;7.82;;;3.10;82.20;;;;;;5075979;28;20036;-82
2022/03/21 01:20:11;;;;;;;15.48;9.73;;;3.10;82.30;;;;;;5059099;28;20044;-82
2022/03/21 01:22:38;;;;;;;15.17;8.50;;;3.00;82.30;;;;;;5059307;28;20396;-81
2022/03/21 01:25:10;;;;;;;15.67;8.73;;;3.00;82.30;;;;;;5059103;28;20044;-81
2022/03/21 01:27:39;;;;;;;17.10;8.23;;;3.00;82.40;;;;;;5075550;28;20044;-81
2022/03/21 01:30:08;;;;;;;14.97;8.37;;;3.00;82.40;;;;;;5058876;28;20121;-81
2022/03/21 01:32:36;;;;;;;14.70;7.90;;;3.00;82.40;;;;;;5059013;28;20114;-81
2022/03/21 01:35:04;;;;;;;14.98;9.13;;;3.00;82.40;;;;;;5058962;28;20147;-81
2022/03/21 01:37:32;;;;;;;14.97;8.37;;;3.00;82.40;;;;;;5058796;28;20447;-81
2022/03/21 01:39:59;;;;;;;14.13;8.65;;;2.90;82.40;;;;;;5042470;28;20054;-81
2022/03/21 01:42:26;;;;;;;13.37;7.70;;;2.90;83.00;;;;;;5058774;28;20032;-81
2022/03/21 01:44:55;;;;;;;13.18;8.35;;;2.90;82.50;;;;;;5041726;28;20416;-81
2022/03/21 01:47:24;;;;;;;15.37;8.53;;;2.90;82.50;;;;;;5075006;28;20043;-81
2022/03/21 01:49:51;;;;;;;14.23;8.03;;;2.90;82.50;;;;;;5075087;28;20809;-82
2022/03/21 01:52:22;;;;;;;16.00;9.00;;;2.90;82.50;;;;;;5058528;28;20106;-82
2022/03/21 01:57:35;;;;;;;15.17;8.53;;;2.80;82.60;;;;;;5078281;28;20446;-82
2022/03/21 02:00:05;;;;;;;17.90;9.67;;;2.80;82.60;;;;;;5042043;28;20040;-82
2022/03/21 02:02:38;;;;;;;14.83;8.40;;;2.80;82.60;;;;;;5076083;28;20473;-82
2022/03/21 02:05:07;;;;;;;14.50;8.33;;;2.80;82.70;;;;;;5075353;28;20054;-82
2022/03/21 02:07:35;;;;;;;15.23;9.13;;;2.70;82.60;;;;;;5058519;28;20040;-82
2022/03/21 02:10:05;;;;;;;14.83;8.87;;;2.70;82.60;;;;;;5058315;28;20101;-82
2022/03/21 02:12:33;;;;;;;13.60;7.97;;;2.70;82.60;;;;;;5058772;28;20655;-82
2022/03/21 02:15:01;;;;;;;14.47;8.90;;;2.70;82.70;;;;;;5058806;28;20443;-83
2022/03/21 02:17:33;;;;;;;15.40;8.87;;;2.70;82.70;;;;;;5058109;28;20044;-83
2022/03/21 02:20:04;;;;;;;14.82;8.38;;;2.70;82.70;;;;;;5058640;28;20062;-83
2022/03/21 02:23:01;;;;;;;14.17;8.97;;;2.60;82.70;;;;;;5058112;28;20131;-83
2022/03/21 02:25:35;;;;;;;15.33;9.43;;;2.60;82.70;;;;;;5058160;28;20093;-83
2022/03/21 02:28:05;;;;;;;14.37;9.00;;;2.60;82.70;;;;;;5057964;28;20051;-83
2022/03/21 02:30:36;;;;;;;15.60;8.77;;;2.60;82.70;;;;;;5074486;28;20408;-83
2022/03/21 02:33:04;;;;;;;16.93;9.30;;;2.60;82.80;;;;;;5074183;28;20496;-83
2022/03/21 02:35:33;;;;;;;17.03;9.73;;;2.50;82.80;;;;;;5040897;28;20048;-83
2022/03/21 02:38:01;;;;;;;15.97;8.73;;;2.50;82.80;;;;;;5091948;28;20063;-83
2022/03/21 02:40:30;;;;;;;15.33;8.87;;;2.50;82.80;;;;;;5057861;28;20048;-83
2022/03/21 02:42:57;;;;;;;14.80;8.33;;;2.50;82.90;;;;;;5055165;28;20500;-82
2022/03/21 02:45:24;;;;;;;15.53;8.70;;;2.50;82.90;;;;;;5037301;28;20132;-83
2022/03/21 02:47:52;;;;;;;14.47;8.93;;;2.50;82.90;;;;;;5054142;28;20094;-82
2022/03/21 02:50:28;;;;;;;14.73;8.53;;;2.50;82.90;;;;;;5053937;28;20052;-82
2022/03/21 02:52:56;;;;;;;13.07;7.93;;;2.40;82.90;;;;;;5053659;28;20140;-82
2022/03/21 02:55:23;;;;;;;15.70;8.83;;;2.40;82.90;;;;;;5020468;28;20048;-82
2022/03/21 02:57:50;;;;;;;16.83;9.07;;;2.40;83.00;;;;;;5021099;28;20040;-82
2022/03/21 03:00:17;;;;;;;13.40;7.57;;;2.40;83.00;;;;;;5020960;28;20048;-82
2022/03/21 03:02:44;;;;;;;14.60;7.93;;;2.40;83.00;;;;;;5070317;28;20127;-82
2022/03/21 03:05:12;;;;;;;13.10;7.80;;;2.30;82.90;;;;;;5038114;28;20136;-82
2022/03/21 03:07:39;;;;;;;16.33;8.87;;;2.30;83.00;;;;;;5055337;28;20048;-82
2022/03/21 03:10:06;;;;;;;13.90;7.77;;;2.30;83.10;;;;;;5038917;28;20056;-83
2022/03/21 03:12:33;;;;;;;16.73;9.17;;;2.30;83.20;;;;;;5042222;28;20099;-81
2022/03/21 03:15:00;;;;;;;13.63;7.73;;;2.30;83.20;;;;;;5053658;28;20434;-82
2022/03/21 03:17:27;;;;;;;14.30;8.57;;;2.20;83.10;;;;;;5064143;28;20052;-82
2022/03/21 03:19:55;;;;;;;12.77;6.20;;;2.20;83.20;;;;;;5059706;28;20110;-83
2022/03/21 03:22:23;;;;;;;12.43;7.37;;;2.20;83.10;;;;;;5057866;28;20036;-82
2022/03/21 03:24:52;;;;;;;12.70;7.37;;;2.20;83.20;;;;;;5057223;28;20063;-82
2022/03/21 03:27:19;;;;;;;11.63;6.77;;;2.20;83.20;;;;;;5040573;28;20044;-82
2022/03/21 03:29:46;;;;;;;12.50;7.80;;;2.10;83.20;;;;;;5057173;28;20075;-82
2022/03/21 03:32:13;;;;;;;13.80;7.50;;;2.10;83.20;;;;;;5041170;28;20151;-82
2022/03/21 03:34:41;;;;;;;11.03;6.57;;;2.10;83.20;;;;;;5059839;28;20054;-83
2022/03/21 03:37:11;;;;;;;14.20;7.20;;;2.10;83.30;;;;;;5045934;28;20477;-83
2022/03/21 03:39:38;;;;;;;13.20;6.30;;;2.20;83.30;;;;;;5045081;28;20044;-83
2022/03/21 03:42:06;;;;;;;14.00;7.37;;;2.10;83.90;;;;;;5061665;28;20071;-82
2022/03/21 03:44:33;;;;;;;14.33;7.37;;;2.10;83.40;;;;;;5044853;28;20089;-82
2022/03/21 03:47:01;;;;;;;14.50;7.27;;;2.10;83.40;;;;;;5044719;28;20098;-82
2022/03/21 03:49:28;;;;;;;13.00;7.03;;;2.10;83.40;;;;;;5061164;28;20040;-82
2022/03/21 03:51:55;;;;;;;12.87;7.53;;;2.10;83.50;;;;;;5061027;28;20040;-82
2022/03/21 03:54:23;;;;;;;12.80;7.03;;;2.10;83.50;;;;;;5059800;28;20451;-82
2022/03/21 03:56:50;;;;;;;17.10;8.07;;;2.10;83.50;;;;;;5040743;28;20045;-82
2022/03/21 03:59:17;;;;;;;14.93;7.10;;;2.00;83.50;;;;;;5024976;28;20115;-82
2022/03/21 04:01:44;;;;;;;12.03;6.80;;;2.00;83.50;;;;;;5040801;28;20041;-82
2022/03/21 04:04:11;;;;;;;12.37;7.00;;;2.00;83.60;;;;;;5024477;28;20048;-82
2022/03/21 04:06:38;;;;;;;13.70;7.17;;;2.00;83.60;;;;;;5040518;28;20040;-82
2022/03/21 04:09:05;;;;;;;13.97;7.40;;;2.00;83.60;;;;;;5024739;28;20044;-82
2022/03/21 04:11:32;;;;;;;12.67;7.00;;;2.00;83.60;;;;;;5057262;28;20049;-82
2022/03/21 04:13:59;;;;;;;12.30;6.77;;;1.90;83.60;;;;;;5024470;28;20044;-82
2022/03/21 04:16:26;;;;;;;12.53;7.00;;;1.90;83.70;;;;;;5057415;28;20040;-82
2022/03/21 04:18:54;;;;;;;12.43;7.13;;;1.90;83.70;;;;;;5040451;28;20055;-83
2022/03/21 04:21:26;;;;;;;11.13;6.57;;;1.90;83.70;;;;;;5057025;28;20048;-83
2022/03/21 04:23:54;;;;;;;13.43;7.37;;;1.90;83.70;;;;;;5023892;28;20062;-83
2022/03/21 04:26:21;;;;;;;13.20;7.30;;;1.90;84.30;;;;;;5040781;28;20123;-83
2022/03/21 04:28:49;;;;;;;12.07;6.97;;;1.90;83.70;;;;;;5040157;28;20516;-83
2022/03/21 04:31:16;;;;;;;10.90;5.80;;;1.90;83.80;;;;;;5024655;28;20532;-83
2022/03/21 04:33:44;;;;;;;12.23;6.30;;;1.80;83.70;;;;;;5040210;28;20052;-82
2022/03/21 04:36:13;;;;;;;13.77;7.67;;;1.80;83.70;;;;;;5023609;28;20048;-82
2022/03/21 04:38:41;;;;;;;10.67;6.17;;;1.80;83.80;;;;;;5024038;28;20037;-83
2022/03/21 04:41:09;;;;;;;13.80;6.80;;;1.80;83.90;;;;;;5056650;28;20041;-83
2022/03/21 04:43:39;;;;;;;11.33;6.60;;;1.80;83.90;;;;;;5024472;28;20036;-82
2022/03/21 04:46:06;;;;;;;11.97;5.67;;;1.80;84.00;;;;;;5055847;28;20048;-83
2022/03/21 04:48:33;;;;;;;13.00;6.87;;;1.80;83.90;;;;;;5040067;28;20044;-82
2022/03/21 04:51:01;;;;;;;9.87;5.40;;;1.70;83.80;;;;;;5039814;28;20111;-83
2022/03/21 04:53:28;;;;;;;10.87;5.73;;;1.70;83.90;;;;;;5056572;28;20059;-82
2022/03/21 04:55:55;;;;;;;8.93;4.80;;;1.70;84.00;;;;;;5036929;28;20044;-82
2022/03/21 04:58:22;;;;;;;9.90;5.47;;;1.70;83.90;;;;;;5026834;28;20493;-82
2022/03/21 05:00:49;;;;;;;10.07;6.07;;;1.70;83.90;;;;;;5043096;28;20044;-82
2022/03/21 05:03:16;;;;;;;11.37;6.20;;;1.70;83.90;;;;;;5059787;28;20440;-83
2022/03/21 05:05:44;;;;;;;10.17;5.43;;;1.60;83.90;;;;;;5043297;28;20055;-83
2022/03/21 05:08:11;;;;;;;12.27;6.00;;;1.60;83.90;;;;;;5076293;28;20485;-83
2022/03/21 05:10:38;;;;;;;8.63;5.07;;;1.60;83.90;;;;;;5059460;28;20056;-81
2022/03/21 05:13:07;;;;;;;11.60;5.23;;;1.60;83.90;;;;;;5059475;28;20044;-82
2022/03/21 05:15:35;;;;;;;11.13;5.90;;;1.60;84.00;;;;;;5059312;28;20036;-82
2022/03/21 05:18:04;;;;;;;9.90;4.93;;;1.60;84.10;;;;;;5075469;28;20063;-82
2022/03/21 05:20:32;;;;;;;9.37;4.93;;;1.60;84.20;;;;;;5059127;28;20048;-83
2022/03/21 05:31:17;;;;;;;8.13;4.43;;;1.50;84.10;;;;;;5061791;28;20047;-83
2022/03/21 05:36:30;;;;;;;8.83;5.10;;;1.50;84.10;;;;;;5061518;28;20048;-82
2022/03/21 05:38:58;;;;;;;11.13;4.47;;;1.50;84.20;;;;;;5042603;28;20330;-82
2022/03/21 05:41:25;;;;;;;10.17;4.97;;;1.50;84.20;;;;;;5059095;28;20064;-83
2022/03/21 05:43:53;;;;;;;11.67;4.93;;;1.50;84.80;;;;;;5059838;28;20188;-82
2022/03/21 05:46:20;;;;;;;8.63;4.20;;;1.50;84.30;;;;;;5060434;28;20055;-82
2022/03/21 05:49:02;;;;;;;9.67;4.80;;;1.50;84.30;;;;;;5058992;28;20052;-82
2022/03/21 05:51:32;;;;;;;8.82;4.47;;;1.60;84.30;;;;;;5058783;28;20051;-82
2022/03/21 05:54:02;;;;;;;7.67;3.87;;;1.60;84.30;;;;;;5058733;28;20075;-82
2022/03/21 05:56:29;;;;;;;10.80;5.03;;;1.60;84.40;;;;;;5057818;28;20055;-82
2022/03/21 05:59:00;;;;;;;7.43;4.50;;;1.60;84.30;;;;;;5058769;28;20036;-82
2022/03/21 06:01:27;;;;;;;8.33;4.10;;;1.60;84.30;;;;;;5059328;28;20081;-82
2022/03/21 06:03:55;;;;;;;9.00;4.83;;;1.60;84.30;;;;;;5042152;28;20044;-82
2022/03/21 06:06:23;;;;;;;9.70;3.80;;;1.60;84.30;;;;;;5058525;28;20044;-83
2022/03/21 06:08:51;;;;;;;7.40;4.40;;;1.60;84.30;;;;;;5058920;28;20043;-83
2022/03/21 06:11:19;;;;;;;8.80;4.20;;;1.70;84.30;;;;;;5059013;28;20377;-83
2022/03/21 06:13:47;;;;;;;9.10;4.43;;;1.70;84.20;;;;;;5058374;28;20040;-82
2022/03/21 06:16:17;;;;;;;9.17;4.63;;;1.70;84.20;;;;;;5059027;28;20093;-83
2022/03/21 06:18:46;;;;;;;8.03;3.97;;;1.70;84.20;;;;;;5058194;28;20776;-83
2022/03/21 06:21:14;;;;;;;7.80;3.83;;;1.80;84.20;;;;;;5058204;28;20078;-82
2022/03/21 06:23:41;;;;;;;8.30;4.37;;;1.80;84.20;;;;;;5057945;28;20521;-82
2022/03/21 06:26:08;;;;;;;7.73;3.70;;;1.90;84.20;;;;;;5058500;28;20040;-82
2022/03/21 06:28:35;;;;;;;7.23;3.80;;;1.90;84.10;;;;;;5025530;28;20056;-82
2022/03/21 06:31:03;;;;;;;7.20;3.97;;;1.90;84.00;;;;;;5058166;28;20067;-82
2022/03/21 06:33:31;;;;;;;6.27;3.33;;;2.00;84.00;;;;;;5058133;28;20040;-82
2022/03/21 06:36:00;;;;;;;8.17;3.20;;;2.10;84.20;;;;;;5058042;28;20443;-82
2022/03/21 06:38:28;;;;;;;7.77;3.87;;;2.20;83.90;;;;;;5058197;28;20044;-82
2022/03/21 06:40:55;;;;;;;7.73;2.87;;;2.30;83.80;;;;;;5074434;28;20074;-82
2022/03/21 06:43:24;;;;;;;8.63;3.73;;;2.40;83.70;;;;;;5058082;28;20036;-82
2022/03/21 06:45:52;;;;;;;8.43;3.47;;;2.50;83.70;;;;;;5058175;28;20777;-82
2022/03/21 06:48:21;;;;;;;6.27;3.03;;;2.60;83.50;;;;;;5058066;28;20040;-82
2022/03/21 06:50:49;;;;;;;6.10;3.00;;;2.60;83.40;;;;;;5057831;28;20089;-82
2022/03/21 06:53:18;;;;;;;6.60;2.90;;;2.80;83.50;;;;;;5057827;28;20054;-83
2022/03/21 06:55:45;;;;;;;6.33;2.90;;;2.80;83.30;;;;;;5057783;28;20070;-82
2022/03/21 06:58:13;;;;;;;6.73;3.23;;;3.00;83.30;;;;;;5074472;28;20055;-83
2022/03/21 07:00:43;;;;;;;7.53;3.77;;;3.10;83.20;;;;;;5057772;28;20169;-83
2022/03/21 07:03:25;;;;;;;6.20;3.13;;;3.20;83.10;;;;;;5058103;28;20048;-83
2022/03/21 07:05:52;;;;;;;6.40;3.00;;;3.30;83.10;;;;;;5044004;28;20097;-82
2022/03/21 07:08:19;;;;;;;6.83;3.10;;;3.40;83.00;;;;;;5043172;28;20274;-79
2022/03/21 07:10:49;;;;;;;6.20;3.03;;;3.50;82.90;;;;;;5062373;28;20036;-84
2022/03/21 07:13:16;;;;;;;5.50;2.70;;;3.60;82.80;;;;;;5029126;28;20089;-84
2022/03/21 07:15:44;;;;;;;5.03;2.60;;;3.70;82.80;;;;;;5044675;28;20054;-85
2022/03/21 07:18:14;;;;;;;5.87;2.50;;;3.80;82.80;;;;;;5061220;28;20040;-84
2022/03/21 07:20:44;;;;;;;5.27;2.40;;;4.00;82.80;;;;;;5061012;28;20040;-83
2022/03/21 07:23:11;;;;;;;5.83;2.17;;;4.10;82.70;;;;;;5045053;28;20036;-85
2022/03/21 07:25:39;;;;;;;5.97;2.35;;;4.20;82.60;;;;;;5045351;28;20085;-84
2022/03/21 07:28:06;;;;;;;5.70;2.70;;;4.30;82.50;;;;;;5045045;28;20050;-85
2022/03/21 07:30:33;;;;;;;4.37;2.17;;;4.50;82.50;;;;;;5044985;28;20492;-85
2022/03/21 07:33:00;;;;;;;4.63;2.33;;;4.60;82.50;;;;;;5077440;28;20419;-85
2022/03/21 07:35:28;;;;;;;5.70;2.97;;;4.80;82.50;;;;;;5061334;28;20432;-85
2022/03/21 07:37:57;;;;;;;5.93;2.45;;;4.90;82.30;;;;;;5044856;28;20040;-88
2022/03/21 07:40:25;;;;;;;5.53;3.10;;;5.00;82.20;;;;;;5062381;28;20514;-85
2022/03/21 07:42:52;;;;;;;6.55;3.13;;;5.20;82.20;;;;;;5029467;28;20044;-87
2022/03/21 07:48:05;;;;;;;6.40;2.55;;;5.50;82.20;;;;;;5064809;28;20105;-88
2022/03/21 07:50:32;;;;;;;5.70;2.85;;;5.60;82.10;;;;;;5062283;28;20047;-88
2022/03/21 07:53:01;;;;;;;6.25;3.45;;;5.70;82.10;;;;;;5078909;28;20066;-87
2022/03/21 07:55:31;;;;;;;6.72;3.10;;;5.80;82.10;;;;;;5062054;28;20450;-89
2022/03/21 07:57:59;;;;;;;5.88;3.30;;;5.90;82.10;;;;;;5062173;28;20070;-85
2022/03/21 08:00:28;;;;;;;6.15;3.22;;;6.00;82.10;;;;;;5061235;28;20036;-89
2022/03/21 08:02:58;;;;;;;7.30;4.00;;;6.10;82.20;;;;;;5045129;28;20098;-87
2022/03/21 08:05:28;;;;;;;9.02;3.80;;;6.20;82.20;;;;;;5045516;28;20044;-86
2022/03/21 08:07:56;;;;;;;6.70;3.45;;;6.30;82.20;;;;;;5060347;28;20073;-80
2022/03/21 08:10:24;;;;;;;6.93;3.20;;;6.40;82.20;;;;;;5060755;28;20060;-85
2022/03/21 08:12:52;;;;;;;9.13;4.05;;;6.50;82.10;;;;;;5060510;28;20106;-84
2022/03/21 08:15:19;;;;;;;6.40;3.58;;;6.60;82.10;;;;;;5060702;28;20055;-83
2022/03/21 08:17:59;;;;;;;8.68;5.03;;;6.70;82.00;;;;;;5061670;28;20040;-82
2022/03/21 08:20:38;;;;;;;9.82;4.90;;;6.90;82.00;;;;;;5076833;28;20396;-82
2022/03/21 08:23:13;;;;;;;11.98;4.70;;;6.90;81.90;;;;;;5061334;28;20040;-83
2022/03/21 08:25:43;;;;;;;8.55;4.80;;;7.00;81.80;;;;;;5061231;28;20381;-86
2022/03/21 08:28:11;;;;;;;9.13;4.35;;;7.10;81.70;;;;;;5061096;28;20135;-85
2022/03/21 08:30:41;;;;;;;8.95;4.72;;;7.20;81.70;;;;;;5044887;28;20518;-88
2022/03/21 08:33:12;;;;;;;10.00;5.03;;;7.30;81.70;;;;;;5041774;28;20538;-88
2022/03/21 08:35:40;;;;;;;9.13;4.15;;;7.40;81.60;;;;;;5040939;28;20135;-85
2022/03/21 08:38:09;;;;;;;8.27;3.83;;;7.50;81.50;;;;;;5040170;28;20384;-81
2022/03/21 08:40:37;;;;;;;8.50;3.50;;;7.60;81.40;;;;;;5040356;28;20118;-82
2022/03/21 08:43:10;;;;;;;10.98;6.45;;;7.70;81.40;;;;;;5024406;28;20047;-85
2022/03/21 08:45:40;;;;;;;10.00;4.45;;;7.70;81.30;;;;;;5056430;28;20044;-82
2022/03/21 08:48:07;;;;;;;7.70;4.18;;;7.80;81.20;;;;;;5039339;28;20052;-83
2022/03/21 08:50:34;;;;;;;9.75;5.15;;;7.80;81.10;;;;;;5006778;28;20134;-84
2022/03/21 08:53:02;;;;;;;7.05;3.53;;;7.90;81.10;;;;;;5023126;28;20105;-82
2022/03/21 08:55:30;;;;;;;10.27;4.90;;;8.00;81.10;;;;;;5039540;28;20057;-83
2022/03/21 08:57:57;;;;;;;8.65;4.53;;;8.00;81.00;;;;;;5056621;28;20136;-83
2022/03/21 09:00:24;;;;;;;11.10;4.00;;;8.10;81.00;;;;;;5023644;28;20123;-83
2022/03/21 09:02:54;;;;;;;8.57;4.38;;;8.20;80.80;;;;;;5023466;28;20032;-82
2022/03/21 09:05:22;;;;;;;7.60;4.43;;;8.30;80.60;;;;;;5039522;28;20044;-83
2022/03/21 09:07:50;;;;;;;7.22;4.10;;;8.40;80.50;;;;;;5039777;28;20080;-82
2022/03/21 09:10:18;;;;;;;7.22;3.80;;;8.50;80.30;;;;;;5056128;28;20044;-83
2022/03/21 09:12:45;;;;;;;7.45;4.28;;;8.60;80.30;;;;;;5039737;28;20048;-85
2022/03/21 09:15:13;;;;;;;7.15;3.65;;;8.60;80.10;;;;;;5039763;28;20056;-83
2022/03/21 09:17:40;;;;;;;8.73;3.80;;;8.60;80.00;;;;;;5022800;28;20143;-83
2022/03/21 09:20:08;;;;;;;6.57;2.90;;;8.70;80.00;;;;;;5038545;28;20041;-80
2022/03/21 09:22:35;;;;;;;7.95;4.35;;;8.80;80.00;;;;;;5054649;28;20044;-80
2022/03/21 09:25:03;;;;;;;5.63;2.80;;;8.80;79.80;;;;;;5054916;28;20139;-80
2022/03/21 09:27:30;;;;;;;5.90;3.10;;;8.90;79.70;;;;;;5038021;28;20045;-81
2022/03/21 09:29:58;;;;;;;6.82;3.63;;;8.90;79.50;;;;;;5038366;28;20051;-80
2022/03/21 09:32:25;;;;;;;10.25;4.57;;;9.00;79.40;;;;;;5037441;28;20040;-80
2022/03/21 09:34:53;;;;;;;8.57;3.83;;;9.10;79.20;;;;;;5038513;28;20045;-79
2022/03/21 09:37:20;;;;;;;8.30;4.40;;;9.20;79.00;;;;;;5022033;28;20055;-79
2022/03/21 09:39:47;;;;;;;7.45;3.35;;;9.30;78.90;;;;;;5038494;28;20040;-79
2022/03/21 09:42:20;;;;;;;8.57;3.45;;;9.30;78.70;;;;;;5022469;28;20053;-79
2022/03/21 09:44:53;;;;;;;7.13;3.88;;;9.50;78.60;;;;;;5048804;28;20075;-81
2022/03/21 09:50:11;;;;;;;7.93;4.38;;;9.60;78.10;;;;;;5079909;28;20396;-80
2022/03/21 09:52:39;;;;;;;7.72;3.75;;;9.70;77.90;;;;;;5064576;28;20531;-80
2022/03/21 09:55:07;;;;;;;7.07;3.90;;;9.80;77.80;;;;;;5054766;28;20068;-79
2022/03/21 09:57:36;;;;;;;7.22;4.03;;;9.90;77.70;;;;;;5054926;28;20419;-79
2022/03/21 10:00:05;;;;;;;6.45;3.70;;;9.90;77.50;;;;;;5072608;28;20048;-80
2022/03/21 10:02:38;;;;;;;6.20;3.15;;;10.00;77.40;;;;;;5057282;28;20058;-79
2022/03/21 10:05:05;;;;;;;8.35;3.92;;;10.00;77.20;;;;;;5035654;28;20070;-79
2022/03/21 10:07:32;;;;;;;8.55;4.55;;;10.10;77.00;;;;;;5035511;28;20068;-80
2022/03/21 10:10:05;;;;;;;9.32;5.70;;;10.30;76.80;;;;;;5000008;28;20087;-80
2022/03/21 10:12:36;;;;;;;9.48;5.10;;;10.40;76.40;;;;;;5031550;28;20098;-79
2022/03/21 10:15:08;;;;;;;7.05;4.57;;;10.40;76.30;;;;;;5036503;28;20062;-79
2022/03/21 10:17:35;;;;;;;7.50;4.43;;;10.50;76.20;;;;;;5054186;28;20055;-79
2022/03/21 10:20:07;;;;;;;7.28;3.95;;;10.50;76.10;;;;;;5070801;28;20408;-79
2022/03/21 10:22:43;;;;;;;7.40;4.20;;;10.60;76.10;;;;;;5038790;28;20040;-77
2022/03/21 10:25:19;;;;;;;7.30;4.15;;;10.70;75.90;;;;;;5068213;28;20120;-75
2022/03/21 10:27:49;;;;;;;5.57;3.03;;;10.70;75.70;;;;;;5048432;28;20047;-79
2022/03/21 10:30:26;;;;;;;8.05;4.38;;;10.80;75.70;;;;;;5054839;28;20102;-87
2022/03/21 10:32:56;;;;;;;7.57;3.97;;;10.90;75.50;;;;;;5050848;28;20143;-77
2022/03/21 10:35:29;;;;;;;9.95;4.30;;;11.00;75.40;;;;;;5075227;28;20043;-79
2022/03/21 10:37:58;;;;;;;6.88;3.70;;;11.10;75.10;;;;;;5073903;28;20047;-77
2022/03/21 10:40:31;;;;;;;6.93;4.00;;;11.10;74.90;;;;;;5057561;28;20138;-77
2022/03/21 10:43:16;;;;;;;7.05;4.10;;;11.20;74.90;;;;;;5073673;28;20507;-76
2022/03/21 10:45:53;;;;;;;6.88;3.92;;;11.20;74.70;;;;;;5074060;28;20044;-79
2022/03/21 10:48:24;;;;;;;7.55;4.50;;;11.30;74.80;;;;;;5073746;28;20491;-82
2022/03/21 10:50:56;;;;;;;10.23;5.80;;;11.40;74.40;;;;;;5073399;28;20050;-79
2022/03/21 10:53:47;;;;;;;14.10;6.95;;;11.60;73.90;;;;;;5057544;28;20557;-83
2022/03/21 10:56:25;;;;;;;10.20;5.80;;;11.70;73.50;;;;;;5067531;28;20040;-84
2022/03/21 10:59:19;;;;;;;11.75;6.70;;;11.80;73.40;;;;;;5084815;28;20055;-87
2022/03/21 11:02:17;;;;;;;10.38;6.03;;;11.90;73.20;;;;;;5095477;28;20102;-81
2022/03/21 11:04:48;;;;;;;9.05;5.13;;;12.00;73.00;;;;;;5091112;28;20213;-86
2022/03/21 11:07:18;;;;;;;8.45;4.60;;;12.00;73.10;;;;;;5075247;28;20054;-80
2022/03/21 11:09:51;;;;;;;12.18;6.22;;;12.00;73.00;;;;;;5079974;28;20039;-78
2022/03/21 11:12:18;;;;;;;9.75;5.97;;;12.10;73.40;;;;;;5094922;28;20057;-77
2022/03/21 11:14:47;;;;;;;13.05;6.00;;;12.20;72.50;;;;;;5044997;28;20131;-78
2022/03/21 11:17:28;;;;;;;10.45;5.40;;;12.20;72.40;;;;;;5056027;28;20091;-81
2022/03/21 11:19:57;;;;;;;8.90;5.22;;;12.30;72.40;;;;;;5091092;28;20467;-78
2022/03/21 11:22:28;;;;;;;9.13;4.85;;;12.30;72.30;;;;;;5090678;28;20064;-79
2022/03/21 11:25:09;;;;;;;8.88;5.40;;;12.30;72.20;;;;;;5090819;28;20029;-83
2022/03/21 11:28:03;;;;;;;8.63;4.55;;;12.30;72.10;;;;;;5057949;28;20052;-85
2022/03/21 11:31:05;;;;;;;8.55;3.95;;;12.30;72.00;;;;;;5076105;28;20052;-81
2022/03/21 11:34:08;;;;;;;7.72;4.43;;;12.40;71.90;;;;;;5074209;28;20052;-82
2022/03/21 11:36:50;;;;;;;7.60;4.65;;;12.40;71.70;;;;;;5057701;28;20075;-81
2022/03/21 11:39:18;;;;;;;8.85;5.50;;;12.50;71.50;;;;;;5057433;28;20561;-82
2022/03/21 11:42:11;;;;;;;9.68;5.60;;;12.60;71.40;;;;;;5041525;28;20075;-81
2022/03/21 11:44:39;;;;;;;9.52;5.45;;;12.70;71.00;;;;;;5073883;28;20514;-80
2022/03/21 11:47:28;;;;;;;9.00;4.93;;;12.70;71.00;;;;;;5057218;28;20118;-82
2022/03/21 11:49:55;;;;;;;6.20;3.88;;;12.80;70.70;;;;;;5057719;28;20044;-87
2022/03/21 11:52:25;;;;;;;7.72;4.32;;;12.80;70.80;;;;;;5074256;28;20044;-85
2022/03/21 11:54:54;;;;;;;8.02;4.53;;;12.80;70.80;;;;;;5074879;28;20055;-85
2022/03/21 11:57:29;;;;;;;7.28;5.10;;;12.90;70.70;;;;;;5077621;28;20044;-82
2022/03/21 11:59:58;;;;;;;7.25;4.60;;;13.00;70.50;;;;;;5077391;28;20048;-80
2022/03/21 12:02:25;;;;;;;8.68;4.60;;;13.00;70.50;;;;;;5053870;28;20040;-80
2022/03/21 12:04:58;;;;;;;8.77;4.60;;;13.00;70.40;;;;;;5038284;28;20040;-80
2022/03/21 12:07:25;;;;;;;7.97;5.10;;;13.10;70.30;;;;;;5071809;28;20044;-80
2022/03/21 12:09:53;;;;;;;7.93;4.90;;;13.10;70.30;;;;;;5064509;28;20048;-82
2022/03/21 12:12:23;;;;;;;7.40;4.43;;;13.10;70.20;;;;;;5037675;28;20072;-78
2022/03/21 12:14:54;;;;;;;7.65;4.15;;;13.10;70.10;;;;;;5054209;28;20041;-77
2022/03/21 12:17:22;;;;;;;7.45;4.00;;;13.20;70.00;;;;;;5070618;28;20055;-78
2022/03/21 12:19:51;;;;;;;6.38;3.95;;;13.20;69.90;;;;;;5087795;28;20150;-78
2022/03/21 12:22:33;;;;;;;8.75;4.13;;;13.30;69.80;;;;;;5081255;28;20043;-78
2022/03/21 12:25:13;;;;;;;7.13;4.32;;;13.40;69.60;;;;;;5063746;28;20112;-79
2022/03/21 12:27:41;;;;;;;7.97;4.43;;;13.40;69.60;;;;;;5057203;28;20117;-76
2022/03/21 12:32:51;;;;;;;10.05;5.53;;;13.50;69.10;;;;;;5083434;28;20175;-78
2022/03/21 12:35:31;;;;;;;9.13;4.97;;;13.60;69.10;;;;;;5046196;28;20041;-77
2022/03/21 12:38:02;;;;;;;10.60;6.00;;;13.60;69.00;;;;;;5042477;28;20298;-80
2022/03/21 12:40:31;;;;;;;10.43;5.97;;;13.70;68.90;;;;;;5074134;28;20079;-81
2022/03/21 12:43:00;;;;;;;9.35;5.68;;;13.80;68.80;;;;;;5074641;28;20047;-79
2022/03/21 12:45:31;;;;;;;9.68;5.68;;;13.90;68.70;;;;;;5057217;28;20044;-81
2022/03/21 12:48:09;;;;;;;10.80;5.85;;;13.90;68.60;;;;;;5057663;28;20054;-82
2022/03/21 12:50:39;;;;;;;9.50;5.40;;;14.00;68.50;;;;;;5073693;28;20046;-81
2022/03/21 12:53:09;;;;;;;9.18;5.75;;;14.10;68.40;;;;;;5056481;28;20048;-77
2022/03/21 12:55:40;;;;;;;9.23;5.65;;;14.10;68.30;;;;;;5073222;28;20048;-76
2022/03/21 12:58:10;;;;;;;11.63;6.47;;;14.10;68.30;;;;;;5057331;28;20044;-75
2022/03/21 13:00:42;;;;;;;10.68;6.07;;;14.10;68.40;;;;;;5073470;28;20044;-79
2022/03/21 13:03:15;;;;;;;11.45;6.65;;;14.20;68.30;;;;;;5056402;28;20044;-80
2022/03/21 13:11:58;;;;;;;9.18;5.28;;;14.20;68.10;;;;;;5056530;28;20128;-81
2022/03/21 13:14:26;;;;;;;10.80;5.88;;;14.20;68.00;;;;;;5058183;28;20067;-78
2022/03/21 13:16:57;;;;;;;10.48;6.43;;;14.30;67.90;;;;;;5046007;28;20516;-78
2022/03/21 13:19:27;;;;;;;11.50;6.63;;;14.30;67.80;;;;;;5054974;28;20403;-80
2022/03/21 13:22:06;;;;;;;11.68;5.50;;;14.40;67.80;;;;;;5072129;28;20068;-77
2022/03/21 13:24:41;;;;;;;9.90;5.10;;;14.40;67.70;;;;;;5064822;28;20051;-77
2022/03/21 13:27:17;;;;;;;10.82;6.10;;;14.50;67.50;;;;;;5075010;28;20465;-76
2022/03/21 13:29:53;;;;;;;13.38;6.20;;;14.60;67.40;;;;;;5092080;28;20082;-82
2022/03/21 13:32:21;;;;;;;11.32;6.28;;;14.70;67.40;;;;;;5076379;28;20043;-77